createdAt,value
2023-05-05T00:01:42.453Z,5.10
2023-05-05T00:04:45.333Z,5.05
2023-05-05T00:07:49.617Z,4.75
2023-05-05T00:10:54.127Z,4.40
2023-05-05T00:13:56.902Z,4.78
2023-05-05T00:16:59.728Z,3.67
2023-05-05T00:20:02.490Z,3.83
2023-05-05T00:23:06.845Z,6.78
2023-05-05T00:26:09.617Z,5.15
2023-05-05T00:29:14.090Z,5.70
2023-05-05T00:32:16.911Z,4.65
2023-05-05T00:35:19.757Z,3.67
2023-05-05T00:38:23.933Z,3.60
2023-05-05T00:41:26.740Z,4.70
2023-05-05T00:44:37.897Z,3.60
2023-05-05T00:47:42.738Z,2.78
2023-05-05T00:50:45.924Z,3.30
2023-05-05T00:53:50.265Z,4.72
2023-05-05T00:56:53.436Z,2.88
2023-05-05T00:59:57.364Z,2.90
2023-05-05T01:03:00.783Z,3.10
2023-05-05T01:06:16.512Z,4.22
2023-05-05T01:09:29.662Z,3.88
2023-05-05T01:12:42.479Z,2.55
2023-05-05T01:15:49.182Z,4.18
2023-05-05T01:18:57.728Z,3.97
2023-05-05T01:22:03.451Z,5.05
2023-05-05T01:25:37.972Z,4.47
2023-05-05T01:29:02.140Z,3.70
2023-05-05T01:32:10.420Z,3.85
2023-05-05T01:35:19.234Z,2.67
2023-05-05T01:38:26.093Z,3.42
2023-05-05T01:41:33.072Z,2.90
2023-05-05T01:47:45.090Z,4.20
2023-05-05T01:50:49.779Z,3.65
2023-05-05T01:53:55.453Z,3.38
2023-05-05T01:57:00.121Z,3.30
2023-05-05T02:00:06.134Z,2.45
2023-05-05T02:03:20.740Z,3.13
2023-05-05T02:06:25.579Z,3.08
2023-05-05T02:09:29.618Z,2.28
2023-05-05T02:12:35.218Z,3.15
2023-05-05T02:15:39.397Z,4.55
2023-05-05T02:18:44.185Z,2.65
2023-05-05T02:21:47.016Z,2.60
2023-05-05T02:24:49.790Z,2.28
2023-05-05T02:28:00.579Z,2.92
2023-05-05T02:31:06.803Z,4.55
2023-05-05T02:34:12.297Z,3.42
2023-05-05T02:37:21.049Z,3.10
2023-05-05T02:40:29.715Z,3.35
2023-05-05T02:43:34.092Z,2.05
2023-05-05T02:46:38.902Z,3.20
2023-05-05T02:49:43.868Z,2.63
2023-05-05T02:52:47.046Z,2.80
2023-05-05T02:55:54.787Z,1.95
2023-05-05T02:59:09.912Z,2.97
2023-05-05T03:02:19.147Z,2.33
2023-05-05T03:05:29.346Z,2.70
2023-05-05T03:08:42.146Z,2.03
2023-05-05T03:11:48.854Z,2.10
2023-05-05T03:14:55.366Z,3.22
2023-05-05T03:18:01.281Z,3.25
2023-05-05T03:21:09.001Z,2.20
2023-05-05T03:24:16.431Z,2.47
2023-05-05T03:27:23.356Z,2.95
2023-05-05T03:30:27.281Z,3.60
2023-05-05T03:33:30.016Z,3.33
2023-05-05T03:36:36.993Z,2.20
2023-05-05T03:39:39.957Z,2.58
2023-05-05T03:42:44.080Z,2.67
2023-05-05T03:45:47.377Z,3.42
2023-05-05T03:48:50.347Z,2.58
2023-05-05T03:51:54.480Z,3.30
2023-05-05T03:54:57.765Z,3.38
2023-05-05T03:58:00.545Z,3.63
2023-05-05T04:01:03.900Z,2.83
2023-05-05T04:04:06.832Z,2.53
2023-05-05T04:07:11.172Z,1.52
2023-05-05T04:10:14.360Z,2.50
2023-05-05T04:13:17.240Z,2.58
2023-05-05T04:16:20.735Z,2.72
2023-05-05T04:19:23.560Z,2.05
2023-05-05T04:22:27.781Z,1.95
2023-05-05T04:25:30.669Z,2.80
2023-05-05T04:28:33.756Z,3.55
2023-05-05T04:31:36.773Z,2.20
2023-05-05T04:34:39.627Z,1.90
2023-05-05T04:37:43.960Z,1.80
2023-05-05T04:40:46.897Z,2.67
2023-05-05T04:43:49.801Z,2.53
2023-05-05T04:46:52.711Z,2.40
2023-05-05T04:49:56.978Z,2.05
2023-05-05T04:53:01.229Z,2.15
2023-05-05T04:56:04.167Z,1.80
2023-05-05T04:59:07.560Z,1.70
2023-05-05T05:02:10.413Z,3.58
2023-05-05T05:05:13.283Z,3.00
2023-05-05T05:08:18.456Z,2.10
2023-05-05T05:11:21.451Z,1.90
2023-05-05T05:14:24.342Z,2.17
2023-05-05T05:17:27.382Z,1.88
2023-05-05T05:20:31.044Z,2.50
2023-05-05T05:23:35.408Z,2.03
2023-05-05T05:26:38.527Z,3.00
2023-05-05T05:29:42.404Z,2.55
2023-05-05T05:32:45.505Z,2.00
2023-05-05T05:35:48.308Z,2.70
2023-05-05T05:38:53.205Z,2.88
2023-05-05T05:41:56.017Z,1.63
2023-05-05T05:44:59.485Z,1.50
2023-05-05T05:48:02.671Z,1.83
2023-05-05T05:51:05.810Z,2.05
2023-05-05T05:54:10.068Z,4.30
2023-05-05T05:57:13.156Z,2.80
2023-05-05T06:00:16.837Z,1.98
2023-05-05T06:03:26.697Z,2.15
2023-05-05T06:06:29.663Z,2.42
2023-05-05T06:09:33.799Z,2.33
2023-05-05T06:12:36.677Z,1.58
2023-05-05T06:15:39.588Z,2.53
2023-05-05T06:18:43.164Z,1.65
2023-05-05T06:21:45.952Z,1.30
2023-05-05T06:24:50.100Z,2.88
2023-05-05T06:27:53.386Z,1.60
2023-05-05T06:30:56.464Z,3.47
2023-05-05T06:33:59.265Z,2.20
2023-05-05T06:37:02.088Z,2.03
2023-05-05T06:40:07.978Z,3.47
2023-05-05T06:43:11.158Z,1.77
2023-05-05T06:46:18.585Z,2.97
2023-05-05T06:49:21.684Z,2.35
2023-05-05T06:52:24.489Z,1.92
2023-05-05T06:55:28.752Z,2.38
2023-05-05T06:58:31.617Z,2.42
2023-05-05T07:01:34.393Z,2.08
2023-05-05T07:04:37.447Z,1.65
2023-05-05T07:07:42.278Z,1.95
2023-05-05T07:10:47.134Z,2.35
2023-05-05T07:13:50.320Z,2.60
2023-05-05T07:16:53.128Z,2.47
2023-05-05T07:19:56.023Z,2.22
2023-05-05T07:22:58.790Z,2.05
2023-05-05T07:26:02.986Z,3.10
2023-05-05T07:29:07.127Z,3.45
2023-05-05T07:32:09.954Z,2.30
2023-05-05T07:35:13.152Z,2.75
2023-05-05T07:38:16.118Z,2.38
2023-05-05T07:41:20.258Z,2.47
2023-05-05T07:44:23.105Z,2.55
2023-05-05T07:47:25.996Z,2.35
2023-05-05T07:50:28.949Z,2.65
2023-05-05T07:53:32.000Z,1.75
2023-05-05T07:56:36.147Z,1.88
2023-05-05T07:59:43.203Z,2.78
2023-05-05T08:02:46.400Z,3.10
2023-05-05T08:05:51.599Z,4.15
2023-05-05T08:08:54.961Z,2.47
2023-05-05T08:11:59.071Z,5.38
2023-05-05T08:15:01.849Z,2.13
2023-05-05T08:18:04.874Z,1.52
2023-05-05T08:21:09.108Z,3.75
2023-05-05T08:24:11.925Z,3.20
2023-05-05T08:27:16.052Z,1.48
2023-05-05T08:30:20.820Z,3.08
2023-05-05T08:33:23.646Z,1.48
2023-05-05T08:36:27.246Z,2.28
2023-05-05T08:39:30.021Z,1.92
2023-05-05T08:42:38.525Z,2.50
2023-05-05T08:45:43.044Z,3.85
2023-05-05T08:48:46.947Z,3.28
2023-05-05T08:51:52.210Z,2.97
2023-05-05T08:55:02.086Z,3.92
2023-05-05T08:58:07.345Z,4.15
2023-05-05T09:01:11.480Z,2.00
2023-05-05T09:04:14.368Z,1.95
2023-05-05T09:07:17.224Z,2.60
2023-05-05T09:10:20.593Z,4.10
2023-05-05T09:13:24.875Z,6.30
2023-05-05T09:16:27.598Z,5.72
2023-05-05T09:19:30.355Z,4.85
2023-05-05T09:22:37.739Z,7.78
2023-05-05T09:25:41.186Z,17.73
2023-05-05T09:28:53.879Z,22.60
2023-05-05T09:32:05.869Z,10.82
2023-05-05T09:35:09.743Z,6.45
2023-05-05T09:38:12.964Z,10.82
2023-05-05T09:41:15.970Z,6.72
2023-05-05T09:44:34.581Z,13.38
2023-05-05T09:47:38.237Z,7.80
2023-05-05T09:50:45.117Z,9.48
2023-05-05T09:53:47.963Z,8.82
2023-05-05T09:56:52.371Z,5.90
2023-05-05T10:00:00.698Z,7.22
2023-05-05T10:03:03.989Z,8.38
2023-05-05T10:06:07.819Z,3.13
2023-05-05T10:09:10.811Z,8.15
2023-05-05T10:12:13.613Z,7.88
2023-05-05T10:15:18.106Z,6.10
2023-05-05T10:18:23.341Z,8.13
2023-05-05T10:21:26.813Z,10.00
2023-05-05T10:24:38.111Z,5.18
2023-05-05T10:27:45.922Z,3.03
2023-05-05T10:30:53.359Z,4.63
2023-05-05T10:34:03.889Z,3.67
2023-05-05T10:37:07.783Z,3.85
2023-05-05T10:40:11.743Z,3.33
2023-05-05T10:43:14.951Z,3.10
2023-05-05T10:46:19.391Z,4.85
2023-05-05T10:49:29.683Z,10.35
2023-05-05T10:52:38.806Z,5.85
2023-05-05T10:55:48.313Z,9.32
2023-05-05T10:58:59.800Z,9.23
2023-05-05T11:02:19.450Z,9.52
2023-05-05T11:05:22.529Z,6.20
2023-05-05T11:08:28.533Z,10.70
2023-05-05T11:12:05.135Z,5.00
2023-05-05T11:15:41.575Z,10.05
2023-05-05T11:18:45.803Z,5.63
2023-05-05T11:22:01.636Z,7.00
2023-05-05T11:25:37.075Z,10.10
2023-05-05T11:28:58.577Z,5.07
2023-05-05T11:32:14.266Z,7.15
2023-05-05T11:35:18.745Z,3.47
2023-05-05T11:38:27.094Z,10.65
2023-05-05T11:42:08.121Z,5.63
2023-05-05T11:45:24.043Z,4.00
2023-05-05T11:48:27.454Z,5.97
2023-05-05T11:51:32.712Z,11.13
2023-05-05T11:54:36.753Z,3.20
2023-05-05T11:57:39.463Z,5.82
2023-05-05T12:00:42.329Z,7.45
2023-05-05T12:03:46.378Z,6.25
2023-05-05T12:06:50.702Z,6.35
2023-05-05T12:09:53.974Z,6.20
2023-05-05T12:12:56.786Z,7.05
2023-05-05T12:16:09.543Z,6.70
2023-05-05T12:19:14.351Z,4.53
2023-05-05T12:22:23.120Z,8.02
2023-05-05T12:25:26.599Z,8.05
2023-05-05T12:28:44.263Z,4.45
2023-05-05T12:31:47.140Z,5.55
2023-05-05T12:34:54.113Z,5.13
2023-05-05T12:37:58.591Z,4.10
2023-05-05T12:41:01.336Z,6.13
2023-05-05T12:44:04.378Z,5.32
2023-05-05T12:47:08.221Z,8.80
2023-05-05T12:50:11.421Z,6.78
2023-05-05T12:53:22.982Z,8.48
2023-05-05T12:56:33.304Z,4.93
2023-05-05T12:59:36.284Z,8.60
2023-05-05T13:02:39.140Z,4.70
2023-05-05T13:05:41.944Z,7.60
2023-05-05T13:08:46.063Z,10.02
2023-05-05T13:11:49.089Z,6.63
2023-05-05T13:14:51.842Z,10.15
2023-05-05T13:18:00.512Z,4.00
2023-05-05T13:21:03.283Z,5.53
2023-05-05T13:24:23.466Z,12.10
2023-05-05T13:27:28.624Z,4.95
2023-05-05T13:30:31.340Z,4.10
2023-05-05T13:33:34.603Z,4.68
2023-05-05T13:36:37.730Z,6.85
2023-05-05T13:39:41.835Z,8.90
2023-05-05T13:42:44.590Z,9.20
2023-05-05T13:45:47.359Z,7.53
2023-05-05T13:48:52.497Z,4.75
2023-05-05T13:51:58.906Z,16.15
2023-05-05T13:55:02.983Z,8.73
2023-05-05T13:58:05.775Z,3.90
2023-05-05T14:01:08.621Z,3.72
2023-05-05T14:04:11.549Z,7.05
2023-05-05T14:07:14.331Z,4.22
2023-05-05T14:10:18.702Z,4.07
2023-05-05T14:13:21.489Z,5.03
2023-05-05T14:16:24.349Z,5.88
2023-05-05T14:19:27.597Z,10.60
2023-05-05T14:22:30.362Z,6.47
2023-05-05T14:25:34.449Z,8.23
2023-05-05T14:28:37.250Z,9.10
2023-05-05T14:31:40.002Z,4.15
2023-05-05T14:34:42.799Z,7.60
2023-05-05T14:37:45.580Z,8.30
2023-05-05T14:40:49.737Z,9.23
2023-05-05T14:43:52.573Z,7.50
2023-05-05T14:46:55.368Z,4.00
2023-05-05T14:49:58.396Z,6.82
2023-05-05T14:53:01.157Z,5.47
2023-05-05T14:56:05.649Z,4.95
2023-05-05T14:59:08.371Z,5.47
2023-05-05T15:02:11.093Z,7.22
2023-05-05T15:05:13.816Z,5.25
2023-05-05T15:08:18.622Z,5.22
2023-05-05T15:11:22.906Z,5.05
2023-05-05T15:14:26.471Z,6.95
2023-05-05T15:17:30.753Z,6.30
2023-05-05T15:20:33.727Z,5.85
2023-05-05T15:23:36.831Z,7.43
2023-05-05T15:26:40.984Z,5.22
2023-05-05T15:29:43.793Z,8.20
2023-05-05T15:32:46.660Z,8.20
2023-05-05T15:35:49.428Z,7.70
2023-05-05T15:38:52.197Z,8.95
2023-05-05T15:41:56.402Z,9.55
2023-05-05T15:45:00.156Z,9.23
2023-05-05T15:48:03.022Z,5.90
2023-05-05T15:51:05.872Z,6.40
2023-05-05T15:54:08.797Z,5.43
2023-05-05T15:57:12.877Z,8.45
2023-05-05T16:00:16.304Z,4.43
2023-05-05T16:03:19.160Z,8.02
2023-05-05T16:06:22.033Z,10.57
2023-05-05T16:09:24.883Z,3.78
2023-05-05T16:12:28.997Z,6.05
2023-05-05T16:15:31.776Z,5.60
2023-05-05T16:18:34.693Z,5.70
2023-05-05T16:21:37.487Z,2.28
2023-05-05T16:24:41.482Z,4.28
2023-05-05T16:27:47.228Z,5.18
2023-05-05T16:30:49.970Z,3.38
2023-05-05T16:33:52.760Z,5.28
2023-05-05T16:36:56.655Z,3.03
2023-05-05T16:40:01.290Z,3.45
2023-05-05T16:43:05.571Z,6.25
2023-05-05T16:46:08.392Z,3.63
2023-05-05T16:49:11.195Z,6.95
2023-05-05T16:52:13.962Z,5.20
2023-05-05T16:55:16.800Z,6.00
2023-05-05T16:58:21.007Z,2.72
2023-05-05T17:01:23.950Z,3.45
2023-05-05T17:04:27.104Z,4.38
2023-05-05T17:07:29.849Z,4.28
2023-05-05T17:10:32.558Z,2.45
2023-05-05T17:13:36.828Z,4.47
2023-05-05T17:16:39.632Z,2.85
2023-05-05T17:19:44.764Z,4.45
2023-05-05T17:22:47.557Z,4.82
2023-05-05T17:25:50.353Z,2.72
2023-05-05T17:28:54.489Z,5.10
2023-05-05T17:31:57.253Z,3.65
2023-05-05T17:34:59.988Z,3.35
2023-05-05T17:38:02.721Z,3.63
2023-05-05T17:41:06.417Z,3.67
2023-05-05T17:44:10.605Z,2.45
2023-05-05T17:47:13.360Z,5.55
2023-05-05T17:50:16.110Z,4.05
2023-05-05T17:53:18.841Z,3.15
2023-05-05T17:56:22.158Z,5.97
2023-05-05T17:59:26.541Z,7.57
2023-05-05T18:02:29.489Z,4.18
2023-05-05T18:05:32.349Z,8.57
2023-05-05T18:08:35.174Z,12.15
2023-05-05T18:11:37.951Z,19.45
2023-05-05T18:14:42.073Z,33.28
2023-05-05T18:17:44.895Z,51.55
2023-05-05T18:20:47.623Z,96.63
2023-05-05T18:23:50.820Z,79.13
2023-05-05T18:26:53.737Z,94.53
2023-05-05T18:29:57.831Z,98.30
2023-05-05T18:33:00.669Z,91.03
2023-05-05T18:36:04.293Z,101.40
2023-05-05T18:39:07.129Z,96.70
2023-05-05T18:42:09.908Z,92.45
2023-05-05T18:45:14.383Z,89.22
2023-05-05T18:48:17.245Z,88.88
2023-05-05T18:51:20.020Z,88.20
2023-05-05T18:54:22.852Z,87.80
2023-05-05T18:57:25.594Z,82.40
2023-05-05T19:00:29.746Z,83.88
2023-05-05T19:03:33.795Z,84.22
2023-05-05T19:06:36.920Z,84.72
2023-05-05T19:09:39.806Z,74.72
2023-05-05T19:12:42.629Z,72.28
2023-05-05T19:15:46.869Z,72.80
2023-05-05T19:18:50.727Z,70.60
2023-05-05T19:21:53.524Z,73.00
2023-05-05T19:24:56.231Z,72.43
2023-05-05T19:27:58.980Z,69.00
2023-05-05T19:31:03.376Z,61.63
2023-05-05T19:34:06.427Z,74.15
2023-05-05T19:37:09.177Z,68.78
2023-05-05T19:40:12.815Z,70.32
2023-05-05T19:43:15.952Z,65.07
2023-05-05T19:46:20.705Z,63.13
2023-05-05T19:49:23.559Z,57.03
2023-05-05T19:52:26.760Z,57.22
2023-05-05T19:55:29.517Z,62.97
2023-05-05T19:58:35.190Z,54.75
2023-05-05T20:01:39.469Z,54.22
2023-05-05T20:04:42.277Z,58.53
2023-05-05T20:07:46.284Z,53.63
2023-05-05T20:10:50.648Z,53.55
2023-05-05T20:13:53.707Z,53.88
2023-05-05T20:16:57.819Z,50.03
2023-05-05T20:20:00.619Z,50.97
2023-05-05T20:23:03.373Z,47.47
2023-05-05T20:26:06.426Z,52.15
2023-05-05T20:29:09.273Z,49.35
2023-05-05T20:32:13.531Z,45.22
2023-05-05T20:35:16.810Z,47.83
2023-05-05T20:38:19.582Z,42.38
2023-05-05T20:41:22.312Z,40.65
2023-05-05T20:44:25.095Z,42.47
2023-05-05T20:47:29.361Z,43.00
2023-05-05T20:50:32.241Z,38.40
2023-05-05T20:53:35.105Z,41.20
2023-05-05T20:56:37.872Z,33.97
2023-05-05T20:59:40.662Z,40.15
2023-05-05T21:02:44.869Z,39.63
2023-05-05T21:05:47.773Z,35.40
2023-05-05T21:08:50.637Z,33.53
2023-05-05T21:11:53.561Z,34.42
2023-05-05T21:14:58.579Z,30.17
2023-05-05T21:18:02.759Z,33.38
2023-05-05T21:21:05.639Z,32.55
2023-05-05T21:24:09.175Z,32.22
2023-05-05T21:27:11.923Z,30.08
2023-05-05T21:30:15.559Z,27.70
2023-05-05T21:33:19.976Z,28.75
2023-05-05T21:36:22.966Z,28.60
2023-05-05T21:39:25.933Z,27.92
2023-05-05T21:42:30.665Z,26.63
2023-05-05T21:45:33.938Z,31.70
2023-05-05T21:48:38.841Z,28.30
2023-05-05T21:51:42.119Z,24.35
2023-05-05T21:54:44.879Z,25.60
2023-05-05T21:57:47.654Z,26.23
2023-05-05T22:00:50.711Z,25.73
2023-05-05T22:03:55.103Z,23.02
2023-05-05T22:06:58.023Z,22.48
2023-05-05T22:10:01.616Z,23.92
2023-05-05T22:13:04.518Z,22.08
2023-05-05T22:16:07.899Z,23.67
2023-05-05T22:19:12.036Z,19.80
2023-05-05T22:22:15.972Z,22.35
2023-05-05T22:25:18.756Z,19.85
2023-05-05T22:28:22.245Z,19.60
2023-05-05T22:31:24.993Z,21.23
2023-05-05T22:34:29.168Z,20.13
2023-05-05T22:37:32.142Z,19.58
2023-05-05T22:40:35.010Z,17.70
2023-05-05T22:43:37.746Z,16.15
2023-05-05T22:46:40.912Z,21.67
2023-05-05T22:49:45.088Z,16.80
2023-05-05T22:52:48.039Z,18.88
2023-05-05T22:55:51.646Z,17.63
2023-05-05T22:58:54.428Z,17.85
2023-05-05T23:01:57.234Z,18.13
2023-05-05T23:05:01.465Z,14.98
2023-05-05T23:08:04.390Z,16.52
2023-05-05T23:11:07.175Z,15.73
2023-05-05T23:14:09.961Z,14.88
2023-05-05T23:17:12.864Z,15.85
2023-05-05T23:20:17.206Z,13.63
2023-05-05T23:23:20.000Z,15.45
2023-05-05T23:26:22.826Z,11.95
2023-05-05T23:29:25.654Z,15.73
2023-05-05T23:32:28.449Z,13.07
2023-05-05T23:35:32.657Z,12.48
2023-05-05T23:38:35.539Z,13.55
2023-05-05T23:41:38.550Z,15.57
2023-05-05T23:44:41.353Z,14.20
2023-05-05T23:47:44.186Z,12.13
2023-05-05T23:50:48.415Z,13.05
2023-05-05T23:53:51.196Z,12.10
2023-05-05T23:56:53.968Z,13.13
2023-05-05T23:59:56.712Z,12.25
